Time;durP1;ratioP1;P1;durP2;ratioP2;P2;SDS_P1;SDS_P2;PMS_P1;PMS_P2;Temp;Humidity;BMP_temperature;BMP_pressure;BME280_temperature;BME280_humidity;BME280_pressure;Samples;Min_cycle;Max_cycle;Signal;HPM_P1;HPM_P2
2021/12/07 00:00:25;;;;;;;85.40;39.25;;;;;;;;;;5041815;28;20143;-68
2021/12/07 00:02:51;;;;;;;78.95;38.95;;;;;;;;;;5047440;28;20029;-68
2021/12/07 00:05:18;;;;;;;90.10;41.22;;;;;;;;;;5036119;28;20491;-68
2021/12/07 00:07:44;;;;;;;75.30;38.38;;;;;;;;;;5045853;28;20034;-68
2021/12/07 00:10:13;;;;;;;75.78;37.13;;;;;;;;;;5041786;28;20120;-69
2021/12/07 00:12:42;;;;;;;91.85;38.95;;;;;;;;;;5037975;28;20029;-67
2021/12/07 00:15:10;;;;;;;86.60;39.55;;;;;;;;;;5048761;28;20033;-69
2021/12/07 00:17:36;;;;;;;80.28;36.05;;;;;;;;;;5036876;28;20049;-69
2021/12/07 00:20:06;;;;;;;73.70;34.28;;;;;;;;;;5043119;28;20450;-68
2021/12/07 00:22:32;;;;;;;77.70;36.60;;;;;;;;;;5028867;28;20041;-70
2021/12/07 00:24:58;;;;;;;75.03;34.17;;;;;;;;;;5047727;28;20036;-69
2021/12/07 00:27:24;;;;;;;71.35;33.45;;;;;;;;;;5035849;28;20305;-69
2021/12/07 00:29:50;;;;;;;63.95;33.25;;;;;;;;;;5044704;28;20022;-69
2021/12/07 00:32:27;;;;;;;60.25;29.95;;;;;;;;;;5042309;28;20610;-68
2021/12/07 00:37:33;;;;;;;63.13;30.92;;;;;;;;;;5048583;28;20029;-68
2021/12/07 00:40:00;;;;;;;62.70;30.45;;;;;;;;;;5040439;28;20028;-68
2021/12/07 00:42:26;;;;;;;53.85;28.77;;;;;;;;;;5041077;28;20025;-68
2021/12/07 00:44:52;;;;;;;57.47;27.23;;;;;;;;;;5046828;28;20029;-69
2021/12/07 00:47:18;;;;;;;55.20;27.42;;;;;;;;;;5035508;28;20029;-68
2021/12/07 00:49:44;;;;;;;58.25;28.85;;;;;;;;;;5046592;28;20033;-69
2021/12/07 00:52:11;;;;;;;76.55;30.30;;;;;;;;;;5040948;28;20111;-69
2021/12/07 00:54:37;;;;;;;57.70;27.17;;;;;;;;;;5038852;28;20045;-69
2021/12/07 00:57:04;;;;;;;50.17;25.08;;;;;;;;;;5048002;28;20482;-69
2021/12/07 00:59:31;;;;;;;50.45;26.05;;;;;;;;;;5019051;28;20100;-69
2021/12/07 01:01:57;;;;;;;47.30;23.60;;;;;;;;;;5044564;28;20395;-69
2021/12/07 01:04:24;;;;;;;49.42;25.98;;;;;;;;;;5042456;28;20116;-69
2021/12/07 01:09:30;;;;;;;50.17;26.02;;;;;;;;;;5088449;28;20036;-71
2021/12/07 01:24:40;;;;;;;48.05;24.05;;;;;;;;;;5078591;28;20588;-71
2021/12/07 01:25:52;;;;;;;47.20;24.77;;;;;;;;;;5078348;28;20035;-72
2021/12/07 01:59:32;;;;;;;45.25;22.52;;;;;;;;;;5062278;28;20031;-71
2021/12/07 02:00:42;;;;;;;45.25;23.05;;;;;;;;;;5078237;28;20528;-71
2021/12/07 02:03:08;;;;;;;44.63;23.15;;;;;;;;;;5087652;28;20488;-71
2021/12/07 02:05:34;;;;;;;47.85;23.13;;;;;;;;;;5075645;28;20024;-71
2021/12/07 02:08:00;;;;;;;41.33;20.30;;;;;;;;;;5083477;28;20024;-71
2021/12/07 02:10:29;;;;;;;44.60;22.52;;;;;;;;;;5084382;28;20116;-70
2021/12/07 02:13:02;;;;;;;47.67;23.65;;;;;;;;;;5079796;28;20044;-72
2021/12/07 02:15:31;;;;;;;46.05;23.63;;;;;;;;;;5091637;28;20374;-71
2021/12/07 02:17:57;;;;;;;50.63;23.70;;;;;;;;;;5080931;28;20511;-71
2021/12/07 02:20:25;;;;;;;46.92;23.42;;;;;;;;;;5084280;28;20075;-70
2021/12/07 02:22:51;;;;;;;46.83;24.60;;;;;;;;;;5089494;28;20020;-71
2021/12/07 02:25:18;;;;;;;46.53;24.60;;;;;;;;;;5075936;28;20029;-71
2021/12/07 02:27:45;;;;;;;48.10;22.50;;;;;;;;;;5088187;28;20017;-71
2021/12/07 02:30:13;;;;;;;45.33;22.73;;;;;;;;;;5082589;28;20017;-71
2021/12/07 02:32:39;;;;;;;49.85;24.13;;;;;;;;;;5081608;28;20025;-71
2021/12/07 02:35:07;;;;;;;47.80;23.60;;;;;;;;;;5089630;28;20020;-71
2021/12/07 02:37:35;;;;;;;43.42;22.67;;;;;;;;;;5078734;28;20087;-71
2021/12/07 02:40:01;;;;;;;51.20;24.38;;;;;;;;;;5087031;28;20020;-71
2021/12/07 02:42:27;;;;;;;45.58;22.67;;;;;;;;;;5085837;28;20488;-70
2021/12/07 02:44:54;;;;;;;43.20;21.90;;;;;;;;;;5079296;28;20082;-70
2021/12/07 02:47:20;;;;;;;44.42;22.60;;;;;;;;;;5090848;28;20544;-70
2021/12/07 02:49:47;;;;;;;43.90;22.88;;;;;;;;;;5078924;28;20020;-71
2021/12/07 02:52:13;;;;;;;42.42;21.63;;;;;;;;;;5085006;28;20359;-71
2021/12/07 02:54:45;;;;;;;43.78;22.25;;;;;;;;;;5087455;28;20530;-70
2021/12/07 02:57:12;;;;;;;47.13;23.80;;;;;;;;;;5077401;28;20028;-70
2021/12/07 02:59:49;;;;;;;44.40;21.95;;;;;;;;;;5089725;28;20028;-70
2021/12/07 03:02:16;;;;;;;42.97;23.02;;;;;;;;;;5084091;28;20103;-71
2021/12/07 03:04:56;;;;;;;43.80;22.33;;;;;;;;;;5080366;28;20070;-71
2021/12/07 03:07:41;;;;;;;47.10;24.02;;;;;;;;;;5090609;28;20089;-72
2021/12/07 03:26:31;;;;;;;45.42;22.02;;;;;;;;;;5081630;28;20398;-71
2021/12/07 03:28:59;;;;;;;47.90;23.95;;;;;;;;;;5089413;28;20024;-71
2021/12/07 03:31:26;;;;;;;44.08;21.67;;;;;;;;;;5076917;28;20013;-71
2021/12/07 03:33:53;;;;;;;43.72;22.50;;;;;;;;;;5086770;28;20024;-71
2021/12/07 03:36:20;;;;;;;44.25;21.67;;;;;;;;;;5084101;28;20062;-71
2021/12/07 03:38:46;;;;;;;43.63;22.10;;;;;;;;;;5079029;28;20048;-71
2021/12/07 03:41:12;;;;;;;46.10;22.13;;;;;;;;;;5089945;28;20469;-71
2021/12/07 03:43:39;;;;;;;49.67;24.25;;;;;;;;;;5077805;28;20024;-71
2021/12/07 03:46:05;;;;;;;45.47;23.35;;;;;;;;;;5083782;28;20036;-73
2021/12/07 03:48:31;;;;;;;44.13;22.25;;;;;;;;;;5085128;28;20024;-71
2021/12/07 03:50:57;;;;;;;43.25;23.45;;;;;;;;;;5076599;28;20025;-71
2021/12/07 03:53:23;;;;;;;46.28;23.85;;;;;;;;;;5089345;28;20028;-71
2021/12/07 03:55:49;;;;;;;47.70;24.33;;;;;;;;;;5079206;28;20060;-70
2021/12/07 03:58:15;;;;;;;49.03;23.65;;;;;;;;;;5083168;28;20150;-71
2021/12/07 04:00:42;;;;;;;51.95;24.90;;;;;;;;;;5086148;28;20066;-71
2021/12/07 04:03:11;;;;;;;51.80;24.65;;;;;;;;;;5076018;28;20509;-71
2021/12/07 04:05:44;;;;;;;52.78;24.83;;;;;;;;;;5087314;28;20025;-72
2021/12/07 04:08:11;;;;;;;55.40;26.17;;;;;;;;;;5081905;28;20036;-70
2021/12/07 04:10:37;;;;;;;52.17;24.80;;;;;;;;;;5079973;28;20078;-71
2021/12/07 04:13:03;;;;;;;53.63;23.90;;;;;;;;;;5088920;28;20032;-72
2021/12/07 04:15:29;;;;;;;55.65;26.75;;;;;;;;;;5074743;28;20119;-71
2021/12/07 04:17:54;;;;;;;57.22;26.30;;;;;;;;;;5085723;28;20414;-71
2021/12/07 04:20:21;;;;;;;54.53;25.98;;;;;;;;;;5083171;28;20039;-71
2021/12/07 04:22:47;;;;;;;55.80;26.33;;;;;;;;;;5078150;28;20033;-70
2021/12/07 04:25:14;;;;;;;57.70;25.88;;;;;;;;;;5088984;28;20465;-71
2021/12/07 04:27:41;;;;;;;60.58;27.15;;;;;;;;;;5077368;28;20042;-71
2021/12/07 04:30:16;;;;;;;54.10;25.95;;;;;;;;;;5083709;28;20028;-72
2021/12/07 04:32:43;;;;;;;57.20;24.92;;;;;;;;;;5083945;28;20020;-72
2021/12/07 04:35:10;;;;;;;57.25;27.27;;;;;;;;;;5075756;28;20020;-72
2021/12/07 04:37:37;;;;;;;59.20;24.70;;;;;;;;;;5086520;28;20017;-72
2021/12/07 04:40:03;;;;;;;58.30;26.00;;;;;;;;;;5080109;28;20020;-72
2021/12/07 04:42:29;;;;;;;54.20;25.05;;;;;;;;;;5080360;28;20031;-72
2021/12/07 04:45:00;;;;;;;60.40;26.35;;;;;;;;;;5087338;28;20024;-72
2021/12/07 04:47:41;;;;;;;57.33;27.20;;;;;;;;;;5075420;28;20489;-72
2021/12/07 04:57:38;;;;;;;;;;;;;;;;;;;;;
2021/12/07 04:58:08;;;;;;;54.92;25.10;;;;;;;;;;5083316;28;20075;-71
2021/12/07 05:00:34;;;;;;;59.40;27.35;;;;;;;;;;5084452;28;20350;-71
2021/12/07 05:03:05;;;;;;;64.20;27.95;;;;;;;;;;5075493;28;20032;-71
2021/12/07 05:05:35;;;;;;;58.47;26.13;;;;;;;;;;5059130;28;20028;-71
2021/12/07 05:08:05;;;;;;;53.33;26.35;;;;;;;;;;5083892;28;20398;-71
2021/12/07 05:15:54;;;;;;;54.33;23.95;;;;;;;;;;5058723;28;20027;-70
2021/12/07 05:18:39;;;;;;;66.43;25.23;;;;;;;;;;5081404;28;20055;-71
2021/12/07 05:39:41;;;;;;;58.63;25.65;;;;;;;;;;5070672;28;20115;-71
2021/12/07 05:42:07;;;;;;;51.53;23.70;;;;;;;;;;5087561;28;20122;-71
2021/12/07 05:44:33;;;;;;;59.13;27.02;;;;;;;;;;5090554;28;20103;-71
2021/12/07 05:46:59;;;;;;;54.15;25.67;;;;;;;;;;5079376;28;20123;-72
2021/12/07 05:49:25;;;;;;;62.28;25.40;;;;;;;;;;5091999;28;20027;-71
2021/12/07 05:51:51;;;;;;;54.05;24.33;;;;;;;;;;5080332;28;20028;-71
2021/12/07 05:54:17;;;;;;;57.85;26.25;;;;;;;;;;5084781;28;20107;-72
2021/12/07 05:56:43;;;;;;;56.38;24.25;;;;;;;;;;5087457;28;20055;-71
2021/12/07 05:59:09;;;;;;;56.53;25.92;;;;;;;;;;5077140;28;20033;-72
2021/12/07 06:01:35;;;;;;;54.75;24.92;;;;;;;;;;5090997;28;20029;-71
2021/12/07 06:04:01;;;;;;;53.15;24.58;;;;;;;;;;5083127;28;20083;-72
2021/12/07 06:06:27;;;;;;;61.40;26.40;;;;;;;;;;5081810;28;20040;-71
2021/12/07 06:08:53;;;;;;;62.17;26.25;;;;;;;;;;5089633;28;20389;-72
2021/12/07 06:11:21;;;;;;;57.45;26.00;;;;;;;;;;5077638;28;20493;-72
2021/12/07 06:13:47;;;;;;;59.13;26.92;;;;;;;;;;5087281;28;20473;-71
2021/12/07 06:16:15;;;;;;;57.83;26.17;;;;;;;;;;5084421;28;20039;-72
2021/12/07 06:18:42;;;;;;;56.30;24.95;;;;;;;;;;5081535;28;20021;-72
2021/12/07 06:21:08;;;;;;;58.72;27.13;;;;;;;;;;5090746;28;20459;-72
2021/12/07 06:23:34;;;;;;;55.13;26.25;;;;;;;;;;5078251;28;20024;-71
2021/12/07 06:26:00;;;;;;;54.38;24.55;;;;;;;;;;5085456;28;20116;-72
2021/12/07 06:28:26;;;;;;;56.35;24.55;;;;;;;;;;5085561;28;20111;-72
2021/12/07 06:30:52;;;;;;;60.63;24.90;;;;;;;;;;5078314;28;20550;-72
2021/12/07 06:33:23;;;;;;;51.40;24.30;;;;;;;;;;5089658;28;20027;-71
2021/12/07 06:35:50;;;;;;;48.30;25.30;;;;;;;;;;5080420;28;20126;-71
2021/12/07 06:38:18;;;;;;;52.78;23.38;;;;;;;;;;5084467;28;20039;-71
2021/12/07 06:40:44;;;;;;;52.78;25.08;;;;;;;;;;5087893;28;20484;-70
2021/12/07 06:43:10;;;;;;;57.13;23.90;;;;;;;;;;5077579;28;20028;-71
2021/12/07 06:45:36;;;;;;;51.33;24.58;;;;;;;;;;5089993;28;20048;-72
2021/12/07 06:48:03;;;;;;;51.03;24.48;;;;;;;;;;5082221;28;20016;-71
2021/12/07 06:50:28;;;;;;;52.13;23.35;;;;;;;;;;5082411;28;20095;-73
2021/12/07 06:52:55;;;;;;;53.88;24.88;;;;;;;;;;5089410;28;20062;-72
2021/12/07 06:55:21;;;;;;;55.20;25.33;;;;;;;;;;5076816;28;20038;-72
2021/12/07 06:57:47;;;;;;;54.13;24.48;;;;;;;;;;5088089;28;20426;-71
2021/12/07 07:00:14;;;;;;;59.72;25.83;;;;;;;;;;5083503;28;20027;-72
2021/12/07 07:02:39;;;;;;;51.03;24.40;;;;;;;;;;5079659;28;20056;-70
2021/12/07 07:05:06;;;;;;;58.13;25.00;;;;;;;;;;5090307;28;20052;-71
2021/12/07 07:07:34;;;;;;;55.33;23.70;;;;;;;;;;5093994;22;20048;-68
2021/12/07 07:10:00;;;;;;;55.97;25.27;;;;;;;;;;5073772;28;20419;-69
2021/12/07 07:12:26;;;;;;;54.55;25.05;;;;;;;;;;5073530;28;20341;-69
2021/12/07 07:14:52;;;;;;;55.60;25.08;;;;;;;;;;5073472;28;20483;-68
2021/12/07 07:17:18;;;;;;;58.85;25.25;;;;;;;;;;5073257;28;20483;-68
2021/12/07 07:19:44;;;;;;;51.83;24.33;;;;;;;;;;5073566;28;20107;-69
2021/12/07 07:22:11;;;;;;;56.35;23.90;;;;;;;;;;5073717;28;20390;-70
2021/12/07 07:24:37;;;;;;;49.92;23.75;;;;;;;;;;5072053;28;20056;-70
2021/12/07 07:27:03;;;;;;;51.13;25.42;;;;;;;;;;5073515;28;20453;-69
2021/12/07 07:29:29;;;;;;;50.55;24.00;;;;;;;;;;5073466;28;20024;-69
2021/12/07 07:31:55;;;;;;;46.60;23.15;;;;;;;;;;5073504;28;20111;-70
2021/12/07 07:34:21;;;;;;;48.67;23.95;;;;;;;;;;5071884;28;20094;-70
2021/12/07 07:36:47;;;;;;;46.53;23.35;;;;;;;;;;5071960;28;20048;-68
2021/12/07 07:39:13;;;;;;;48.38;23.00;;;;;;;;;;5071700;28;20058;-69
2021/12/07 07:41:39;;;;;;;45.00;21.85;;;;;;;;;;5071956;28;20028;-69
2021/12/07 07:44:05;;;;;;;43.80;23.55;;;;;;;;;;5074538;28;20021;-68
2021/12/07 07:46:31;;;;;;;41.65;21.25;;;;;;;;;;5073420;28;20035;-69
2021/12/07 07:49:00;;;;;;;44.47;21.33;;;;;;;;;;5072816;28;20028;-69
2021/12/07 07:51:26;;;;;;;43.75;21.63;;;;;;;;;;5073339;28;20606;-69
2021/12/07 07:53:54;;;;;;;41.55;20.98;;;;;;;;;;5064426;28;20032;-69
2021/12/07 07:56:20;;;;;;;40.92;20.27;;;;;;;;;;5068636;28;20017;-69
2021/12/07 07:58:46;;;;;;;43.15;21.52;;;;;;;;;;5072293;28;20039;-69
2021/12/07 08:01:12;;;;;;;45.83;21.17;;;;;;;;;;5064776;28;20155;-69
2021/12/07 08:03:38;;;;;;;45.45;23.02;;;;;;;;;;5072465;28;20382;-70
2021/12/07 08:06:04;;;;;;;42.55;21.40;;;;;;;;;;5072609;28;20055;-69
2021/12/07 08:08:30;;;;;;;40.90;20.50;;;;;;;;;;5064937;28;20525;-69
2021/12/07 08:10:57;;;;;;;46.35;21.77;;;;;;;;;;5072857;28;20040;-69
2021/12/07 08:13:23;;;;;;;42.35;22.45;;;;;;;;;;5072494;28;20024;-69
2021/12/07 08:15:49;;;;;;;39.75;20.35;;;;;;;;;;5072161;28;20020;-69
2021/12/07 08:18:15;;;;;;;37.55;20.60;;;;;;;;;;5072406;28;20091;-68
2021/12/07 08:20:42;;;;;;;37.17;20.60;;;;;;;;;;5071090;28;20033;-70
2021/12/07 08:23:08;;;;;;;41.72;20.73;;;;;;;;;;5072105;28;20107;-69
2021/12/07 08:25:35;;;;;;;39.38;21.48;;;;;;;;;;5072237;28;20072;-69
2021/12/07 08:28:01;;;;;;;42.20;21.20;;;;;;;;;;5072315;28;20024;-69
2021/12/07 08:30:28;;;;;;;41.85;20.58;;;;;;;;;;5072193;28;20444;-68
2021/12/07 08:32:54;;;;;;;39.25;20.55;;;;;;;;;;5072272;28;20020;-69
2021/12/07 08:35:21;;;;;;;41.67;20.70;;;;;;;;;;5072264;28;20371;-70
2021/12/07 08:37:48;;;;;;;38.17;20.60;;;;;;;;;;5072023;28;20020;-68
2021/12/07 08:40:16;;;;;;;37.03;20.05;;;;;;;;;;5070755;28;20514;-68
2021/12/07 08:42:42;;;;;;;39.60;20.10;;;;;;;;;;5072114;28;20020;-69
2021/12/07 08:45:09;;;;;;;38.53;20.25;;;;;;;;;;5071772;28;20310;-68
2021/12/07 08:47:35;;;;;;;41.03;21.80;;;;;;;;;;5071955;28;20020;-68
2021/12/07 08:50:01;;;;;;;42.67;21.05;;;;;;;;;;5071743;28;20025;-68
2021/12/07 08:52:27;;;;;;;40.13;21.08;;;;;;;;;;5070490;28;20115;-68
2021/12/07 09:00:09;;;;;;;40.17;19.90;;;;;;;;;;5042645;28;20078;-67
2021/12/07 09:02:35;;;;;;;37.13;20.45;;;;;;;;;;5067388;28;20048;-68
2021/12/07 09:05:01;;;;;;;38.30;20.33;;;;;;;;;;5071301;28;20098;-68
2021/12/07 09:07:27;;;;;;;38.35;22.00;;;;;;;;;;5071375;28;20033;-68
2021/12/07 09:09:53;;;;;;;34.83;19.63;;;;;;;;;;5071435;28;20029;-68
2021/12/07 09:12:20;;;;;;;39.25;20.88;;;;;;;;;;5069279;28;20093;-69
2021/12/07 09:14:47;;;;;;;36.33;18.90;;;;;;;;;;5070455;28;20033;-68
2021/12/07 09:17:13;;;;;;;38.72;20.55;;;;;;;;;;5070297;28;20068;-68
2021/12/07 09:19:40;;;;;;;38.05;19.58;;;;;;;;;;5069917;28;20034;-70
2021/12/07 09:22:06;;;;;;;40.95;19.90;;;;;;;;;;5069307;28;20077;-67
2021/12/07 09:24:33;;;;;;;40.75;20.25;;;;;;;;;;5067350;28;20420;-67
2021/12/07 09:26:59;;;;;;;40.67;20.92;;;;;;;;;;5070337;28;20488;-67
2021/12/07 09:29:26;;;;;;;36.55;20.52;;;;;;;;;;5070608;28;20386;-67
2021/12/07 09:31:52;;;;;;;40.08;21.15;;;;;;;;;;5070112;28;20074;-67
2021/12/07 09:34:18;;;;;;;40.97;21.25;;;;;;;;;;5070344;28;20052;-67
2021/12/07 09:36:44;;;;;;;37.63;21.42;;;;;;;;;;5070323;28;20481;-67
2021/12/07 09:39:15;;;;;;;38.50;20.40;;;;;;;;;;5070227;28;20024;-68
2021/12/07 09:41:41;;;;;;;38.22;21.80;;;;;;;;;;5070620;28;20025;-67
2021/12/07 09:44:08;;;;;;;42.15;21.80;;;;;;;;;;5070272;28;20055;-67
2021/12/07 09:46:35;;;;;;;41.28;21.42;;;;;;;;;;5069166;28;20086;-67
2021/12/07 09:49:01;;;;;;;40.22;20.13;;;;;;;;;;5070083;28;20096;-68
2021/12/07 09:51:28;;;;;;;42.58;20.77;;;;;;;;;;5069852;28;20024;-67
2021/12/07 09:53:54;;;;;;;42.88;21.48;;;;;;;;;;5069507;28;20299;-67
2021/12/07 09:56:21;;;;;;;38.97;21.40;;;;;;;;;;5069967;28;20025;-68
2021/12/07 09:58:48;;;;;;;44.03;22.25;;;;;;;;;;5068954;28;20052;-67
2021/12/07 10:01:14;;;;;;;41.78;22.02;;;;;;;;;;5070714;28;20017;-68
2021/12/07 10:03:41;;;;;;;42.88;22.10;;;;;;;;;;5070093;28;20082;-68
2021/12/07 10:06:07;;;;;;;39.92;21.48;;;;;;;;;;5068961;28;20103;-68
2021/12/07 10:08:33;;;;;;;38.95;21.20;;;;;;;;;;5068838;28;20108;-69
2021/12/07 10:11:00;;;;;;;43.50;23.38;;;;;;;;;;5067647;28;20458;-68
2021/12/07 10:13:29;;;;;;;46.20;24.13;;;;;;;;;;5070089;28;20070;-67
2021/12/07 10:15:56;;;;;;;40.97;21.90;;;;;;;;;;5070758;28;20020;-67
2021/12/07 10:18:24;;;;;;;37.60;21.67;;;;;;;;;;5068806;28;20028;-68
2021/12/07 10:20:52;;;;;;;39.13;21.48;;;;;;;;;;5070013;28;20024;-68
2021/12/07 10:23:22;;;;;;;40.58;21.98;;;;;;;;;;5069927;28;20379;-68
2021/12/07 10:25:56;;;;;;;41.53;21.95;;;;;;;;;;5070182;28;20025;-68
2021/12/07 10:28:37;;;;;;;42.15;22.35;;;;;;;;;;5070504;28;20023;-68
2021/12/07 10:31:21;;;;;;;39.85;22.58;;;;;;;;;;5069878;28;20028;-69
2021/12/07 10:33:49;;;;;;;40.22;21.27;;;;;;;;;;5073654;28;20033;-68
2021/12/07 10:36:16;;;;;;;41.65;21.75;;;;;;;;;;5073820;28;20020;-67
2021/12/07 10:38:46;;;;;;;40.13;23.00;;;;;;;;;;5073631;28;20044;-68
2021/12/07 10:41:16;;;;;;;41.78;21.80;;;;;;;;;;5073791;28;20036;-68
2021/12/07 10:43:48;;;;;;;42.30;23.00;;;;;;;;;;5073347;28;20029;-67
2021/12/07 10:46:26;;;;;;;40.42;21.60;;;;;;;;;;5072415;28;20028;-68
2021/12/07 10:49:07;;;;;;;35.80;20.55;;;;;;;;;;5073511;28;20033;-68
2021/12/07 10:51:33;;;;;;;40.67;21.15;;;;;;;;;;5073737;28;20024;-68
2021/12/07 10:53:59;;;;;;;42.42;21.60;;;;;;;;;;5070273;28;20486;-68
2021/12/07 10:56:32;;;;;;;37.97;20.35;;;;;;;;;;5061952;28;20021;-65
2021/12/07 10:59:02;;;;;;;41.72;22.23;;;;;;;;;;5053469;28;20028;-67
2021/12/07 11:01:33;;;;;;;35.60;17.45;;;;;;;;;;5070920;28;20052;-68
2021/12/07 11:04:17;;;;;;;41.05;21.67;;;;;;;;;;5065233;28;20368;-67
2021/12/07 11:07:02;;;;;;;42.00;21.90;;;;;;;;;;5068555;28;20033;-68
2021/12/07 11:09:28;;;;;;;39.85;21.60;;;;;;;;;;5072623;28;20393;-67
2021/12/07 11:12:14;;;;;;;37.25;21.55;;;;;;;;;;5071914;28;20020;-67
2021/12/07 11:14:40;;;;;;;39.72;21.17;;;;;;;;;;5072930;28;20017;-68
2021/12/07 11:17:07;;;;;;;37.13;21.13;;;;;;;;;;5073206;28;20404;-67
2021/12/07 11:19:33;;;;;;;39.40;21.88;;;;;;;;;;5073192;28;20028;-68
2021/12/07 11:21:58;;;;;;;40.72;21.88;;;;;;;;;;5073139;28;20104;-68
2021/12/07 11:24:37;;;;;;;36.15;21.38;;;;;;;;;;5073007;28;20463;-66
2021/12/07 11:30:04;;;;;;;41.20;22.00;;;;;;;;;;5072831;28;20401;-68
2021/12/07 11:32:30;;;;;;;34.40;20.25;;;;;;;;;;5072718;28;20393;-68
2021/12/07 11:35:06;;;;;;;39.63;22.25;;;;;;;;;;5071128;28;20113;-68
2021/12/07 11:37:35;;;;;;;40.17;22.35;;;;;;;;;;5071004;28;20032;-68
2021/12/07 11:40:02;;;;;;;41.03;22.90;;;;;;;;;;5069811;28;20130;-68
2021/12/07 11:42:29;;;;;;;42.33;23.38;;;;;;;;;;5069575;28;20035;-67
2021/12/07 11:45:00;;;;;;;38.95;21.63;;;;;;;;;;5057546;28;20048;-67
2021/12/07 11:47:33;;;;;;;35.05;18.80;;;;;;;;;;5052096;28;20048;-68
2021/12/07 11:50:14;;;;;;;42.00;23.75;;;;;;;;;;5050640;28;20033;-68
2021/12/07 11:52:40;;;;;;;43.13;22.70;;;;;;;;;;5070552;28;20036;-68
2021/12/07 11:55:09;;;;;;;43.75;22.33;;;;;;;;;;5070967;28;20024;-69
2021/12/07 11:57:35;;;;;;;42.63;23.60;;;;;;;;;;5070172;28;20027;-69
2021/12/07 12:00:01;;;;;;;52.58;22.65;;;;;;;;;;5072667;28;20542;-69
2021/12/07 12:02:27;;;;;;;42.30;23.83;;;;;;;;;;5070523;28;20029;-67
2021/12/07 12:04:53;;;;;;;41.15;22.55;;;;;;;;;;5070451;28;20133;-67
2021/12/07 12:07:19;;;;;;;37.42;21.55;;;;;;;;;;5070843;28;20032;-67
2021/12/07 12:09:51;;;;;;;39.50;22.42;;;;;;;;;;5071273;28;20020;-68
2021/12/07 12:12:26;;;;;;;44.13;23.08;;;;;;;;;;5071018;28;20020;-67
2021/12/07 12:15:18;;;;;;;41.40;22.83;;;;;;;;;;5070014;28;20772;-66
2021/12/07 12:18:02;;;;;;;40.97;23.23;;;;;;;;;;5070505;28;20508;-68
2021/12/07 12:20:31;;;;;;;44.08;22.55;;;;;;;;;;5070707;28;20035;-66
2021/12/07 12:23:16;;;;;;;38.97;22.02;;;;;;;;;;5070749;28;20386;-67
2021/12/07 12:25:42;;;;;;;44.08;24.33;;;;;;;;;;5071764;28;20470;-68
2021/12/07 12:28:08;;;;;;;42.22;21.30;;;;;;;;;;5071737;28;20060;-68
2021/12/07 12:30:39;;;;;;;42.17;22.48;;;;;;;;;;5071827;28;20141;-68
2021/12/07 12:33:06;;;;;;;41.47;22.15;;;;;;;;;;5071518;28;20066;-66
2021/12/07 12:35:40;;;;;;;39.97;23.63;;;;;;;;;;5071655;28;20028;-68
2021/12/07 12:38:32;;;;;;;39.75;22.95;;;;;;;;;;5071499;28;20032;-66
2021/12/07 12:40:58;;;;;;;41.65;23.10;;;;;;;;;;5070474;28;20505;-68
2021/12/07 12:43:44;;;;;;;44.80;23.98;;;;;;;;;;5071238;28;20103;-68
2021/12/07 12:46:12;;;;;;;43.40;22.63;;;;;;;;;;5070075;28;20082;-67
2021/12/07 12:48:38;;;;;;;40.85;22.98;;;;;;;;;;5071542;28;20479;-67
2021/12/07 12:51:04;;;;;;;45.78;24.08;;;;;;;;;;5071449;28;20032;-68
2021/12/07 12:53:34;;;;;;;43.17;22.00;;;;;;;;;;5070743;28;20027;-69
2021/12/07 12:56:11;;;;;;;44.08;23.42;;;;;;;;;;5068520;28;20162;-67
2021/12/07 12:58:41;;;;;;;43.65;22.85;;;;;;;;;;5068259;28;20024;-67
2021/12/07 13:01:08;;;;;;;43.38;23.75;;;;;;;;;;5069619;28;20508;-67
2021/12/07 13:03:40;;;;;;;40.22;21.58;;;;;;;;;;5070189;28;20024;-67
2021/12/07 13:06:06;;;;;;;49.33;25.08;;;;;;;;;;5070149;28;20056;-68
2021/12/07 13:08:32;;;;;;;44.83;24.38;;;;;;;;;;5067739;22;20048;-73
2021/12/07 13:11:02;;;;;;;41.22;22.73;;;;;;;;;;5031318;28;20032;-74
2021/12/07 13:13:36;;;;;;;36.92;21.70;;;;;;;;;;5031294;28;20025;-72
2021/12/07 13:16:13;;;;;;;37.65;20.98;;;;;;;;;;5045938;28;20030;-73
2021/12/07 13:18:43;;;;;;;44.63;23.83;;;;;;;;;;5030071;28;20033;-74
2021/12/07 13:21:24;;;;;;;41.13;23.50;;;;;;;;;;5030267;28;20104;-74
2021/12/07 13:23:57;;;;;;;44.47;24.65;;;;;;;;;;5030500;28;20045;-73
2021/12/07 13:26:24;;;;;;;43.63;23.30;;;;;;;;;;5030267;28;20029;-72
2021/12/07 13:29:01;;;;;;;41.05;23.35;;;;;;;;;;5028418;28;20040;-74
2021/12/07 13:31:35;;;;;;;42.05;23.38;;;;;;;;;;5030718;28;20101;-73
2021/12/07 13:34:02;;;;;;;47.95;24.05;;;;;;;;;;5030789;28;20025;-73
2021/12/07 13:36:36;;;;;;;44.85;23.45;;;;;;;;;;5030880;28;20026;-74
2021/12/07 13:39:08;;;;;;;42.65;23.35;;;;;;;;;;5030809;28;20025;-72
2021/12/07 13:41:35;;;;;;;44.92;23.25;;;;;;;;;;5029043;28;20025;-72
2021/12/07 13:44:01;;;;;;;49.17;25.98;;;;;;;;;;5029409;28;20026;-69
2021/12/07 13:46:29;;;;;;;46.25;23.45;;;;;;;;;;5030799;28;20033;-73
2021/12/07 13:49:06;;;;;;;46.85;23.35;;;;;;;;;;5030792;28;20128;-73
2021/12/07 13:51:32;;;;;;;47.30;23.25;;;;;;;;;;5029445;28;20033;-71
2021/12/07 13:54:00;;;;;;;47.13;24.15;;;;;;;;;;5029146;28;20029;-71
2021/12/07 13:56:26;;;;;;;42.42;22.95;;;;;;;;;;5030232;28;20033;-72
2021/12/07 13:59:01;;;;;;;46.47;24.05;;;;;;;;;;5029286;28;20033;-73
2021/12/07 14:01:28;;;;;;;47.72;24.40;;;;;;;;;;5030742;28;20066;-75
2021/12/07 14:03:56;;;;;;;42.65;23.95;;;;;;;;;;5028959;28;20498;-71
2021/12/07 14:06:22;;;;;;;46.03;24.45;;;;;;;;;;5033639;28;20091;-73
2021/12/07 14:08:48;;;;;;;44.10;24.42;;;;;;;;;;5035493;28;20128;-72
2021/12/07 14:11:15;;;;;;;48.70;24.88;;;;;;;;;;5035046;28;20506;-72
2021/12/07 14:13:45;;;;;;;44.53;23.98;;;;;;;;;;5033311;28;20105;-76
2021/12/07 14:16:14;;;;;;;46.80;24.93;;;;;;;;;;5032422;28;20064;-72
2021/12/07 14:18:42;;;;;;;49.03;24.58;;;;;;;;;;5022087;28;20338;-74
2021/12/07 14:21:08;;;;;;;48.90;25.73;;;;;;;;;;5014367;28;20033;-73
2021/12/07 14:23:39;;;;;;;46.63;26.13;;;;;;;;;;5014537;28;20021;-74
2021/12/07 14:26:06;;;;;;;47.15;24.85;;;;;;;;;;5014536;28;20038;-74
2021/12/07 14:28:34;;;;;;;59.63;26.77;;;;;;;;;;5014450;28;20106;-75
2021/12/07 14:31:03;;;;;;;48.17;24.38;;;;;;;;;;5013829;28;20057;-72
2021/12/07 14:33:28;;;;;;;50.30;26.33;;;;;;;;;;5013312;28;20026;-73
2021/12/07 14:35:54;;;;;;;44.58;24.35;;;;;;;;;;5011129;28;20486;-74
2021/12/07 14:38:20;;;;;;;46.90;25.05;;;;;;;;;;5012526;28;20033;-74
2021/12/07 14:40:46;;;;;;;48.85;25.48;;;;;;;;;;5012839;28;20345;-74
2021/12/07 14:43:12;;;;;;;48.70;24.30;;;;;;;;;;5013017;28;20045;-76
2021/12/07 14:45:39;;;;;;;48.10;27.33;;;;;;;;;;5012760;28;20029;-73
2021/12/07 14:48:05;;;;;;;44.38;25.02;;;;;;;;;;5013333;28;20494;-74
2021/12/07 14:50:32;;;;;;;53.65;25.90;;;;;;;;;;5014304;28;20470;-74
2021/12/07 14:52:58;;;;;;;49.33;26.45;;;;;;;;;;5013986;28;20022;-70
2021/12/07 14:55:24;;;;;;;54.63;26.65;;;;;;;;;;5017034;28;20026;-73
2021/12/07 14:57:50;;;;;;;52.72;26.77;;;;;;;;;;5017552;28;20076;-71
2021/12/07 15:00:18;;;;;;;48.97;26.75;;;;;;;;;;5016822;28;20487;-71
2021/12/07 15:02:46;;;;;;;46.33;26.42;;;;;;;;;;5016297;28;20030;-76
2021/12/07 15:05:12;;;;;;;45.53;25.65;;;;;;;;;;5016856;28;20040;-72
2021/12/07 15:07:39;;;;;;;47.28;26.17;;;;;;;;;;5016708;28;20048;-75
2021/12/07 15:10:07;;;;;;;47.13;25.13;;;;;;;;;;5015206;28;20030;-71
2021/12/07 15:12:40;;;;;;;45.47;23.73;;;;;;;;;;5017620;28;20022;-73
2021/12/07 15:15:07;;;;;;;50.65;27.52;;;;;;;;;;5018669;28;20077;-74
2021/12/07 15:17:33;;;;;;;49.35;25.90;;;;;;;;;;5017575;28;20026;-72
2021/12/07 15:20:00;;;;;;;50.33;26.42;;;;;;;;;;5019502;28;20037;-74
2021/12/07 15:22:27;;;;;;;44.10;24.40;;;;;;;;;;5018330;28;20131;-71
2021/12/07 15:24:53;;;;;;;48.70;26.23;;;;;;;;;;5019146;28;20466;-74
2021/12/07 15:27:20;;;;;;;48.63;26.45;;;;;;;;;;5013065;28;20346;-73
2021/12/07 15:29:49;;;;;;;47.38;25.77;;;;;;;;;;5013451;28;20113;-74
2021/12/07 15:32:15;;;;;;;48.10;27.15;;;;;;;;;;5013884;28;20022;-74
2021/12/07 15:34:42;;;;;;;54.67;28.95;;;;;;;;;;5014539;28;20025;-73
2021/12/07 15:37:11;;;;;;;48.92;26.85;;;;;;;;;;5017738;28;20076;-75
2021/12/07 15:39:40;;;;;;;49.58;27.23;;;;;;;;;;5016379;28;20026;-74
2021/12/07 15:42:08;;;;;;;44.72;24.60;;;;;;;;;;5013275;28;20503;-71
2021/12/07 15:44:37;;;;;;;44.63;25.60;;;;;;;;;;5012888;28;20490;-74
2021/12/07 15:47:08;;;;;;;55.67;27.20;;;;;;;;;;5012948;28;20022;-75
2021/12/07 15:49:36;;;;;;;48.83;27.65;;;;;;;;;;5013178;28;20022;-73
2021/12/07 15:52:05;;;;;;;50.70;26.00;;;;;;;;;;5013171;28;20390;-71
2021/12/07 15:54:31;;;;;;;51.05;28.10;;;;;;;;;;5012641;28;20021;-75
2021/12/07 15:56:59;;;;;;;48.25;25.33;;;;;;;;;;5012835;28;20030;-74
2021/12/07 15:59:25;;;;;;;50.03;26.65;;;;;;;;;;5012613;28;20226;-71
2021/12/07 16:01:51;;;;;;;49.45;26.60;;;;;;;;;;5012710;28;20030;-74
2021/12/07 16:04:21;;;;;;;54.53;28.20;;;;;;;;;;5012654;28;20030;-72